Time,TemperatureF,DewpointF,PressureIn,WindDirection,WindDirectionDegrees,WindSpeedMPH,WindSpeedGustMPH,Humidity,HourlyPrecipIn,Conditions,Clouds,dailyrainin,SoftwareType,DateUTC
2013-06-27 00:00:00,71.0,69.0,29.83,South,190,3.0,3.0,92,0.00,,,-99.99,,2013-06-27 04:00:00,
2013-06-27 00:33:00,71.0,69.0,29.83,South,190,3.0,3.0,92,0.00,,,-99.99,,2013-06-27 04:33:00,
2013-06-27 00:42:00,71.0,69.0,29.83,South,190,3.0,3.0,92,0.00,,,-99.99,,2013-06-27 04:42:00,
2013-06-27 00:53:00,71.0,69.0,29.83,South,190,3.0,3.0,92,0.00,,,-99.99,,2013-06-27 04:53:00,
2013-06-27 12:00:00,81.0,64.0,29.77,South,170,3.0,10.0,56,0.00,,,-99.99,,2013-06-27 16:00:00,
2013-06-27 12:34:00,81.0,64.0,29.77,South,170,3.0,10.0,56,0.00,,,-99.99,,2013-06-27 16:34:00,
2013-06-27 12:43:00,81.0,64.0,29.77,South,170,3.0,10.0,56,0.00,,,-99.99,,2013-06-27 16:43:00,
2013-06-27 12:53:00,81.0,64.0,29.77,South,170,3.0,10.0,56,0.00,,,-99.99,,2013-06-27 16:53:00,
2013-06-27 13:00:00,81.0,67.0,29.77,South,172,4.0,10.0,61,0.00,,,-99.99,,2013-06-27 17:00:00,
2013-06-27 13:43:00,81.0,67.0,29.77,South,172,4.0,10.0,61,0.00,,,-99.99,,2013-06-27 17:43:00,
2013-06-27 13:53:00,81.0,67.0,29.77,South,172,4.0,10.0,61,0.00,,,-99.99,,2013-06-27 17:53:00,
2013-06-27 14:00:00,82.0,68.0,29.74,SSE,153,7.0,12.0,62,0.00,,,-99.99,,2013-06-27 18:00:00,
2013-06-27 14:32:00,82.0,68.0,29.74,SSE,153,7.0,12.0,62,0.00,,,-99.99,,2013-06-27 18:32:00,
2013-06-27 14:44:00,82.0,68.0,29.74,SSE,153,7.0,12.0,62,0.00,,,-99.99,,2013-06-27 18:44:00,
2013-06-27 14:52:00,82.0,68.0,29.74,SSE,153,7.0,12.0,62,0.00,,,-99.99,,2013-06-27 18:52:00,
2013-06-27 15:00:00,83.0,64.0,29.71,South,173,5.0,12.0,52,0.00,,,-99.99,,2013-06-27 19:00:00,
2013-06-27 15:42:00,83.0,64.0,29.71,South,173,5.0,12.0,52,0.00,,,-99.99,,2013-06-27 19:42:00,
2013-06-27 15:53:00,83.0,64.0,29.71,South,173,5.0,12.0,52,0.00,,,-99.99,,2013-06-27 19:53:00,
2013-06-27 16:00:00,84.0,70.0,29.71,SSE,150,9.0,15.0,63,0.00,,,-99.99,,2013-06-27 20:00:00,
2013-06-27 16:40:00,84.0,70.0,29.71,SSE,150,9.0,15.0,63,0.00,,,-99.99,,2013-06-27 20:40:00,
2013-06-27 16:49:00,84.0,70.0,29.71,SSE,150,9.0,15.0,63,0.00,,,-99.99,,2013-06-27 20:49:00,
2013-06-27 17:00:00,81.0,67.0,29.65,ESE,120,10.0,16.0,61,0.00,,,-99.99,,2013-06-27 21:00:00,
2013-06-27 17:36:00,81.0,67.0,29.65,ESE,120,10.0,16.0,61,0.00,,,-99.99,,2013-06-27 21:36:00,
2013-06-27 17:50:00,81.0,67.0,29.65,ESE,120,10.0,16.0,61,0.00,,,-99.99,,2013-06-27 21:50:00,
2013-06-27 17:57:00,81.0,67.0,29.65,ESE,120,10.0,16.0,61,0.00,,,-99.99,,2013-06-27 21:57:00,
2013-06-27 19:00:00,74.0,70.0,29.59,East,80,10.0,15.0,86,0.00,,,-99.99,,2013-06-27 23:00:00,
2013-06-27 19:36:00,74.0,70.0,29.59,East,80,10.0,15.0,86,0.00,,,-99.99,,2013-06-27 23:36:00,
2013-06-27 19:48:00,74.0,70.0,29.59,East,80,10.0,15.0,86,0.00,,,-99.99,,2013-06-27 23:48:00,
2013-06-27 19:59:00,74.0,70.0,29.59,East,80,10.0,15.0,86,0.00,,,-99.99,,2013-06-27 23:59:00,
2013-06-27 20:00:00,71.0,69.0,29.59,SSE,148,8.0,26.0,95,1.14,,,-99.99,,2013-06-28 00:00:00,
2013-06-27 20:38:00,71.0,69.0,29.59,SSE,148,8.0,26.0,95,1.14,,,-99.99,,2013-06-28 00:38:00,
2013-06-27 20:46:00,71.0,69.0,29.59,SSE,148,8.0,26.0,95,1.14,,,-99.99,,2013-06-28 00:46:00,
2013-06-27 20:56:00,71.0,69.0,29.59,SSE,148,8.0,26.0,95,1.14,,,-99.99,,2013-06-28 00:56:00,
2013-06-27 21:49:00,70.0,69.0,29.56,SSE,151,6.0,16.0,97,0.17,,,-99.99,,2013-06-28 01:49:00,
2013-06-27 22:00:00,71.0,70.0,29.56,SW,224,10.0,20.0,97,0.19,,,-99.99,,2013-06-28 02:00:00,
2013-06-27 22:38:00,71.0,70.0,29.56,SW,224,10.0,20.0,97,0.19,,,-99.99,,2013-06-28 02:38:00,
2013-06-27 22:50:00,71.0,70.0,29.56,SW,224,10.0,20.0,97,0.19,,,-99.99,,2013-06-28 02:50:00,
2013-06-27 22:58:00,71.0,70.0,29.56,SW,224,10.0,20.0,97,0.19,,,-99.99,,2013-06-28 02:58:00,
2013-06-27 23:00:00,70.0,69.0,29.59,WSW,256,16.0,26.0,95,0.01,,,-99.99,,2013-06-28 03:00:00,
2013-06-27 23:39:00,70.0,69.0,29.59,WSW,256,16.0,26.0,95,0.01,,,-99.99,,2013-06-28 03:39:00,
2013-06-27 23:46:00,70.0,69.0,29.59,WSW,256,16.0,26.0,95,0.01,,,-99.99,,2013-06-28 03:46:00,
2013-06-27 23:57:00,70.0,69.0,29.59,WSW,256,16.0,26.0,95,0.01,,,-99.99,,2013-06-28 03:57:00,